createdAt,value
2023-12-24T00:00:33.201Z,1.20
2023-12-24T00:03:18.679Z,1.07
2023-12-24T00:06:04.540Z,1.70
2023-12-24T00:08:50.322Z,1.53
2023-12-24T00:11:35.820Z,0.93
2023-12-24T00:14:21.458Z,0.97
2023-12-24T00:17:07.076Z,0.87
2023-12-24T00:19:52.820Z,1.57
2023-12-24T00:22:38.826Z,0.67
2023-12-24T00:25:24.595Z,1.20
2023-12-24T00:28:10.177Z,1.27
2023-12-24T00:30:55.659Z,0.83
2023-12-24T00:33:41.097Z,0.87
2023-12-24T00:36:26.693Z,1.07
2023-12-24T00:39:12.258Z,0.73
2023-12-24T00:41:58.003Z,0.70
2023-12-24T00:44:45.176Z,1.33
2023-12-24T00:47:30.742Z,1.03
2023-12-24T00:50:16.427Z,0.60
2023-12-24T00:53:01.791Z,0.93
2023-12-24T00:55:47.500Z,1.23
2023-12-24T00:58:33.328Z,0.50
2023-12-24T01:01:19.319Z,0.60
2023-12-24T01:04:05.054Z,1.17
2023-12-24T01:06:50.570Z,0.43
2023-12-24T01:09:39.931Z,0.50
2023-12-24T01:12:25.430Z,0.70
2023-12-24T01:15:11.199Z,1.03
2023-12-24T01:17:57.562Z,0.73
2023-12-24T01:20:43.576Z,1.50
2023-12-24T01:23:28.779Z,0.40
2023-12-24T01:26:14.324Z,0.50
2023-12-24T01:28:59.928Z,0.90
2023-12-24T01:31:45.420Z,0.40
2023-12-24T01:34:31.224Z,0.30
2023-12-24T01:37:17.036Z,1.37
2023-12-24T01:40:02.916Z,0.50
2023-12-24T01:42:49.182Z,0.63
2023-12-24T01:45:35.065Z,0.50
2023-12-24T01:48:21.553Z,0.47
2023-12-24T01:51:08.326Z,0.57
2023-12-24T01:53:54.059Z,0.53
2023-12-24T01:56:40.918Z,0.77
2023-12-24T01:59:27.999Z,0.30
2023-12-24T02:02:14.409Z,0.40
2023-12-24T02:05:00.714Z,0.53
2023-12-24T02:07:47.333Z,0.50
2023-12-24T02:10:32.512Z,1.33
2023-12-24T02:13:19.493Z,0.53
2023-12-24T02:16:08.238Z,1.10
2023-12-24T02:18:53.922Z,0.87
2023-12-24T02:21:39.702Z,0.63
2023-12-24T02:24:25.335Z,0.67
2023-12-24T02:27:25.006Z,0.40
2023-12-24T02:30:19.949Z,0.97
2023-12-24T02:33:08.258Z,0.50
2023-12-24T02:35:54.359Z,0.50
2023-12-24T02:38:39.942Z,0.50
2023-12-24T02:41:25.932Z,0.40
2023-12-24T02:44:12.661Z,0.43
2023-12-24T02:46:58.020Z,0.47
2023-12-24T02:49:43.283Z,0.60
2023-12-24T02:52:29.001Z,0.50
2023-12-24T02:55:14.745Z,0.80
2023-12-24T02:58:00.506Z,0.73
2023-12-24T03:00:46.297Z,1.13
2023-12-24T03:03:33.189Z,1.10
2023-12-24T03:06:18.563Z,1.57
2023-12-24T03:09:04.457Z,0.93
2023-12-24T03:11:49.854Z,0.80
2023-12-24T03:14:35.751Z,1.23
2023-12-24T03:17:21.064Z,1.23
2023-12-24T03:20:08.782Z,1.23
2023-12-24T03:22:54.722Z,0.73
2023-12-24T03:25:40.365Z,1.23
2023-12-24T03:28:26.016Z,1.00
2023-12-24T03:31:15.963Z,0.80
2023-12-24T03:34:03.233Z,0.80
2023-12-24T03:36:48.952Z,0.90
2023-12-24T03:39:34.820Z,1.77
2023-12-24T03:42:20.050Z,1.73
2023-12-24T03:45:06.201Z,1.90
2023-12-24T03:47:52.105Z,1.50
2023-12-24T03:50:37.797Z,1.47
2023-12-24T03:53:23.397Z,2.33
2023-12-24T03:56:11.244Z,2.00
2023-12-24T03:58:56.954Z,1.57
2023-12-24T04:01:42.909Z,1.70
2023-12-24T04:04:28.170Z,1.67
2023-12-24T04:07:16.970Z,1.60
2023-12-24T04:10:02.660Z,1.93
2023-12-24T04:12:48.077Z,1.70
2023-12-24T04:15:34.784Z,1.73
2023-12-24T04:18:20.534Z,1.73
2023-12-24T04:21:05.994Z,2.63
2023-12-24T04:23:55.313Z,1.60
2023-12-24T04:26:41.184Z,2.03
2023-12-24T04:29:26.848Z,2.30
2023-12-24T04:32:14.038Z,3.23
2023-12-24T04:34:59.459Z,2.67
2023-12-24T04:37:45.016Z,2.73
2023-12-24T04:40:30.597Z,2.73
2023-12-24T04:43:16.006Z,2.23
2023-12-24T04:46:01.693Z,2.13
2023-12-24T04:48:47.459Z,2.60
2023-12-24T04:51:32.624Z,2.93
2023-12-24T04:54:18.233Z,3.63
2023-12-24T04:57:04.461Z,2.17
2023-12-24T04:59:49.812Z,4.83
2023-12-24T05:02:35.911Z,2.83
2023-12-24T05:05:22.903Z,3.50
2023-12-24T05:08:08.588Z,2.77
2023-12-24T05:10:54.435Z,3.43
2023-12-24T05:13:40.184Z,3.83
2023-12-24T05:16:25.700Z,3.43
2023-12-24T05:19:13.977Z,4.37
2023-12-24T05:21:59.319Z,3.27
2023-12-24T05:24:44.909Z,2.60
2023-12-24T05:27:30.540Z,4.50
2023-12-24T05:30:16.178Z,2.47
2023-12-24T05:33:01.743Z,2.60
2023-12-24T05:35:47.439Z,2.50
2023-12-24T05:38:32.958Z,4.30
2023-12-24T05:41:18.536Z,2.80
2023-12-24T05:44:03.886Z,2.70
2023-12-24T05:46:53.472Z,2.97
2023-12-24T05:49:39.505Z,3.07
2023-12-24T05:52:25.393Z,1.80
2023-12-24T05:55:11.810Z,3.00
2023-12-24T05:57:57.592Z,3.30
2023-12-24T06:00:42.966Z,3.07
2023-12-24T06:03:28.689Z,3.20
2023-12-24T06:06:14.506Z,2.53
2023-12-24T06:08:59.801Z,2.27
2023-12-24T06:11:45.460Z,6.73
2023-12-24T06:14:31.146Z,3.13
2023-12-24T06:17:16.667Z,3.57
2023-12-24T06:20:02.288Z,3.50
2023-12-24T06:22:47.929Z,2.57
2023-12-24T06:25:35.981Z,3.03
2023-12-24T06:28:21.943Z,2.77
2023-12-24T06:31:07.727Z,3.33
2023-12-24T06:33:53.104Z,3.43
2023-12-24T06:36:39.466Z,2.47
2023-12-24T06:39:25.252Z,2.70
2023-12-24T06:42:10.641Z,2.30
2023-12-24T06:44:56.232Z,2.50
2023-12-24T06:47:41.678Z,2.93
2023-12-24T06:50:27.423Z,3.00
2023-12-24T06:53:13.184Z,2.93
2023-12-24T06:55:58.923Z,2.23
2023-12-24T06:58:44.767Z,3.33
2023-12-24T07:01:30.271Z,3.47
2023-12-24T07:04:15.605Z,3.17
2023-12-24T07:07:01.331Z,2.37
2023-12-24T07:09:46.867Z,2.83
2023-12-24T07:12:32.507Z,3.83
2023-12-24T07:15:17.632Z,3.10
2023-12-24T07:18:03.555Z,2.40
2023-12-24T07:20:49.511Z,2.37
2023-12-24T07:23:34.915Z,2.70
2023-12-24T07:26:22.196Z,2.43
2023-12-24T07:29:08.086Z,2.63
2023-12-24T07:31:53.609Z,1.93
2023-12-24T07:34:39.208Z,2.53
2023-12-24T07:37:25.284Z,2.03
2023-12-24T07:40:11.499Z,4.40
2023-12-24T07:43:00.397Z,2.13
2023-12-24T07:45:45.759Z,2.30
2023-12-24T07:48:31.229Z,2.87
2023-12-24T07:51:16.692Z,2.27
2023-12-24T07:54:04.522Z,3.33
2023-12-24T07:56:49.993Z,2.80
2023-12-24T07:59:35.743Z,2.73
2023-12-24T08:02:21.147Z,2.73
2023-12-24T08:05:07.355Z,2.87
2023-12-24T08:07:52.872Z,3.00
2023-12-24T08:10:38.520Z,2.70
2023-12-24T08:13:24.311Z,3.17
2023-12-24T08:16:09.623Z,3.33
2023-12-24T08:18:56.888Z,1.87
2023-12-24T08:21:42.780Z,5.50
2023-12-24T08:24:29.239Z,2.17
2023-12-24T08:27:15.004Z,2.47
2023-12-24T08:30:00.656Z,2.70
2023-12-24T08:32:47.368Z,3.00
2023-12-24T08:35:34.924Z,2.27
2023-12-24T08:38:20.217Z,3.50
2023-12-24T08:41:06.184Z,3.03
2023-12-24T08:43:51.436Z,3.73
2023-12-24T08:46:37.298Z,3.10
2023-12-24T08:49:24.440Z,4.90
2023-12-24T08:52:10.749Z,2.43
2023-12-24T08:54:56.449Z,3.83
2023-12-24T08:57:42.849Z,3.80
2023-12-24T09:00:28.272Z,3.83
2023-12-24T09:03:13.612Z,3.30
2023-12-24T09:05:59.292Z,3.20
2023-12-24T09:08:45.035Z,4.53
2023-12-24T09:11:30.392Z,3.57
2023-12-24T09:14:15.908Z,7.03
2023-12-24T09:17:01.523Z,4.67
2023-12-24T09:19:47.292Z,17.43
2023-12-24T09:22:32.782Z,8.97
2023-12-24T09:25:18.290Z,5.17
2023-12-24T09:28:03.741Z,3.63
2023-12-24T09:30:50.347Z,3.87
2023-12-24T09:33:36.695Z,3.27
2023-12-24T09:36:22.289Z,3.50
2023-12-24T09:39:08.021Z,3.50
2023-12-24T09:41:55.038Z,2.43
2023-12-24T09:44:41.522Z,1.77
2023-12-24T09:47:27.590Z,2.10
2023-12-24T09:50:13.784Z,2.80
2023-12-24T09:53:00.371Z,3.10
2023-12-24T09:55:45.911Z,4.80
2023-12-24T09:58:31.453Z,2.53
2023-12-24T10:01:16.916Z,2.20
2023-12-24T10:04:02.467Z,2.40
2023-12-24T10:06:59.208Z,2.33
2023-12-24T10:09:48.172Z,2.63
2023-12-24T10:12:34.067Z,2.23
2023-12-24T10:15:20.567Z,3.17
2023-12-24T10:18:20.003Z,2.93
2023-12-24T10:21:12.160Z,3.37
2023-12-24T10:24:05.914Z,2.72
2023-12-24T10:26:57.450Z,1.52
2023-12-24T10:29:44.537Z,1.93
2023-12-24T10:32:30.812Z,1.40
2023-12-24T10:35:24.102Z,1.20
2023-12-24T10:38:16.643Z,1.40
2023-12-24T10:41:03.113Z,1.80
2023-12-24T10:43:48.889Z,2.28
2023-12-24T10:46:34.924Z,2.78
2023-12-24T10:49:20.615Z,1.58
2023-12-24T10:52:06.725Z,1.40
2023-12-24T10:54:55.059Z,1.80
2023-12-24T10:58:08.043Z,2.20
2023-12-24T11:00:54.055Z,2.95
2023-12-24T11:03:51.248Z,1.30
2023-12-24T11:06:41.804Z,2.17
2023-12-24T11:09:27.454Z,2.50
2023-12-24T11:12:30.393Z,1.63
2023-12-24T11:15:43.148Z,1.95
2023-12-24T11:18:45.777Z,1.80
2023-12-24T11:21:32.559Z,1.85
2023-12-24T11:24:21.673Z,1.45
2023-12-24T11:27:07.010Z,1.77
2023-12-24T11:29:54.693Z,1.60
2023-12-24T11:32:40.758Z,1.80
2023-12-24T11:35:54.623Z,2.33
2023-12-24T11:38:41.214Z,1.40
2023-12-24T11:41:27.764Z,1.65
2023-12-24T11:44:16.314Z,1.77
2023-12-24T11:47:03.236Z,2.67
2023-12-24T11:49:50.173Z,3.15
2023-12-24T11:52:36.355Z,2.38
2023-12-24T11:55:22.552Z,2.78
2023-12-24T11:58:09.442Z,2.70
2023-12-24T12:00:54.798Z,2.60
2023-12-24T12:03:40.468Z,3.00
2023-12-24T12:06:33.220Z,3.33
2023-12-24T12:09:20.360Z,5.32
2023-12-24T12:12:05.954Z,3.58
2023-12-24T12:14:51.826Z,3.60
2023-12-24T12:17:37.284Z,3.00
2023-12-24T12:20:22.797Z,2.83
2023-12-24T12:23:09.386Z,2.75
2023-12-24T12:25:54.736Z,2.72
2023-12-24T12:28:40.687Z,3.20
2023-12-24T12:31:26.399Z,3.20
2023-12-24T12:34:12.340Z,3.03
2023-12-24T12:36:58.122Z,2.72
2023-12-24T12:39:43.691Z,2.97
2023-12-24T12:42:39.322Z,2.53
2023-12-24T12:45:28.163Z,6.75
2023-12-24T12:48:13.980Z,3.47
2023-12-24T12:51:00.050Z,3.20
2023-12-24T12:53:45.849Z,4.60
2023-12-24T12:56:31.479Z,2.70
2023-12-24T12:59:21.722Z,2.42
2023-12-24T13:02:07.643Z,2.38
2023-12-24T13:04:53.217Z,4.53
2023-12-24T13:07:38.712Z,3.72
2023-12-24T13:10:28.828Z,4.13
2023-12-24T13:13:18.929Z,2.88
2023-12-24T13:16:09.489Z,3.35
2023-12-24T13:18:55.655Z,3.65
2023-12-24T13:21:41.341Z,5.00
2023-12-24T13:24:26.658Z,4.82
2023-12-24T13:27:12.571Z,4.53
2023-12-24T13:29:57.968Z,4.93
2023-12-24T13:32:43.653Z,4.95
2023-12-24T13:35:29.521Z,3.95
2023-12-24T13:38:18.729Z,4.05
2023-12-24T13:41:04.240Z,5.30
2023-12-24T13:43:51.453Z,3.70
2023-12-24T13:46:37.468Z,5.22
2023-12-24T13:49:23.326Z,4.72
2023-12-24T13:52:09.709Z,3.83
2023-12-24T13:54:55.170Z,4.63
2023-12-24T13:57:40.908Z,5.05
2023-12-24T14:00:29.808Z,4.10
2023-12-24T14:03:15.293Z,3.92
2023-12-24T14:06:01.555Z,5.15
2023-12-24T14:08:47.028Z,5.03
2023-12-24T14:11:32.872Z,5.43
2023-12-24T14:14:18.493Z,4.13
2023-12-24T14:17:04.088Z,4.88
2023-12-24T14:19:53.938Z,3.88
2023-12-24T14:22:39.975Z,3.00
2023-12-24T14:25:25.657Z,2.35
2023-12-24T14:28:11.596Z,2.00
2023-12-24T14:30:57.049Z,2.08
2023-12-24T14:33:42.701Z,1.65
2023-12-24T14:36:30.120Z,1.70
2023-12-24T14:39:15.692Z,2.60
2023-12-24T14:42:01.119Z,2.05
2023-12-24T14:44:47.240Z,2.35
2023-12-24T14:47:33.110Z,2.50
2023-12-24T14:50:18.881Z,2.75
2023-12-24T14:53:04.813Z,3.22
2023-12-24T14:55:50.729Z,3.80
2023-12-24T14:58:36.106Z,2.30
2023-12-24T15:01:21.708Z,2.97
2023-12-24T15:04:07.305Z,2.28
2023-12-24T15:06:53.057Z,2.65
2023-12-24T15:09:40.119Z,2.22
2023-12-24T15:12:26.623Z,1.83
2023-12-24T15:15:12.592Z,1.92
2023-12-24T15:17:57.993Z,3.40
2023-12-24T15:20:43.780Z,2.35
2023-12-24T15:23:29.171Z,2.97
2023-12-24T15:26:15.046Z,2.90
2023-12-24T15:29:01.285Z,2.50
2023-12-24T15:31:49.491Z,2.90
2023-12-24T15:34:34.954Z,2.75
2023-12-24T15:37:20.394Z,2.83
2023-12-24T15:40:06.623Z,3.03
2023-12-24T15:42:54.586Z,2.10
2023-12-24T15:45:42.103Z,1.98
2023-12-24T15:48:29.238Z,3.55
2023-12-24T15:51:15.000Z,2.80
2023-12-24T15:54:00.303Z,3.33
2023-12-24T15:56:46.084Z,2.70
2023-12-24T15:59:32.627Z,2.50
2023-12-24T16:02:18.096Z,2.42
2023-12-24T16:05:04.128Z,2.25
2023-12-24T16:07:49.639Z,2.45
2023-12-24T16:10:35.396Z,2.67
2023-12-24T16:13:20.889Z,2.92
2023-12-24T16:16:07.046Z,3.97
2023-12-24T16:18:52.763Z,3.60
2023-12-24T16:21:43.665Z,1.88
2023-12-24T16:24:29.832Z,1.88
2023-12-24T16:27:15.283Z,2.88
2023-12-24T16:30:00.994Z,2.90
2023-12-24T16:32:46.832Z,2.75
2023-12-24T16:35:33.542Z,3.75
2023-12-24T16:38:18.980Z,2.33
2023-12-24T16:41:04.725Z,2.47
2023-12-24T16:43:50.512Z,4.47
2023-12-24T16:46:35.798Z,3.30
2023-12-24T16:49:21.660Z,3.55
2023-12-24T16:52:07.123Z,3.22
2023-12-24T16:54:52.460Z,3.33
2023-12-24T16:57:38.117Z,4.60
2023-12-24T17:00:23.994Z,6.40
2023-12-24T17:03:09.553Z,4.63
2023-12-24T17:05:55.094Z,6.28
2023-12-24T17:08:41.156Z,5.30
2023-12-24T17:11:26.745Z,4.80
2023-12-24T17:14:12.289Z,5.25
2023-12-24T17:16:57.743Z,3.90
2023-12-24T17:19:43.046Z,3.70
2023-12-24T17:22:28.621Z,3.83
2023-12-24T17:25:14.484Z,4.32
2023-12-24T17:28:00.013Z,5.13
2023-12-24T17:30:45.320Z,4.40
2023-12-24T17:33:30.890Z,4.38
2023-12-24T17:36:20.220Z,4.15
2023-12-24T17:39:05.911Z,6.78
2023-12-24T17:41:51.486Z,9.40
2023-12-24T17:44:38.696Z,4.03
2023-12-24T17:47:24.350Z,7.00
2023-12-24T17:50:10.273Z,5.47
2023-12-24T17:52:57.637Z,4.55
2023-12-24T17:55:43.369Z,4.40
2023-12-24T17:58:28.692Z,4.55
2023-12-24T18:01:14.372Z,5.63
2023-12-24T18:04:00.057Z,4.93
2023-12-24T18:06:45.995Z,4.95
2023-12-24T18:09:31.310Z,5.95
2023-12-24T18:12:16.726Z,5.10
2023-12-24T18:15:06.175Z,6.13
2023-12-24T18:17:52.000Z,6.18
2023-12-24T18:20:37.497Z,5.95
2023-12-24T18:23:23.226Z,5.13
2023-12-24T18:26:15.845Z,5.07
2023-12-24T18:29:01.319Z,4.72
2023-12-24T18:31:46.938Z,4.93
2023-12-24T18:34:32.723Z,5.80
2023-12-24T18:37:18.112Z,5.32
2023-12-24T18:40:05.153Z,5.38
2023-12-24T18:42:50.694Z,5.25
2023-12-24T18:45:36.435Z,6.82
2023-12-24T18:48:28.757Z,6.75
2023-12-24T18:51:20.274Z,6.57
2023-12-24T18:54:05.992Z,7.25
2023-12-24T18:56:51.656Z,6.93
2023-12-24T18:59:37.228Z,5.70
2023-12-24T19:02:22.971Z,7.80
2023-12-24T19:05:08.644Z,8.77
2023-12-24T19:07:54.573Z,5.30
2023-12-24T19:10:40.762Z,6.18
2023-12-24T19:13:27.109Z,7.53
2023-12-24T19:16:14.595Z,7.28
2023-12-24T19:19:00.599Z,10.30
2023-12-24T19:21:46.300Z,7.10
2023-12-24T19:24:33.172Z,7.45
2023-12-24T19:27:18.569Z,8.40
2023-12-24T19:30:04.414Z,8.23
2023-12-24T19:32:49.796Z,7.18
2023-12-24T19:35:35.385Z,9.80
2023-12-24T19:38:20.937Z,7.25
2023-12-24T19:41:06.633Z,7.30
2023-12-24T19:43:52.257Z,7.07
2023-12-24T19:46:38.260Z,6.97
2023-12-24T19:49:23.722Z,4.82
2023-12-24T19:52:09.288Z,7.65
2023-12-24T19:54:55.018Z,5.18
2023-12-24T19:57:40.629Z,5.80
2023-12-24T20:00:26.445Z,6.00
2023-12-24T20:03:12.094Z,6.40
2023-12-24T20:05:58.369Z,5.22
2023-12-24T20:08:43.980Z,5.43
2023-12-24T20:11:30.218Z,4.53
2023-12-24T20:14:15.857Z,6.65
2023-12-24T20:17:01.339Z,6.00
2023-12-24T20:19:48.173Z,6.45
2023-12-24T20:22:33.584Z,3.58
2023-12-24T20:25:19.167Z,4.90
2023-12-24T20:28:07.265Z,5.60
2023-12-24T20:30:54.163Z,4.30
2023-12-24T20:33:40.111Z,4.25
2023-12-24T20:36:25.571Z,3.60
2023-12-24T20:39:11.770Z,3.85
2023-12-24T20:41:57.435Z,4.88
2023-12-24T20:44:43.186Z,5.75
2023-12-24T20:47:29.628Z,4.00
2023-12-24T20:50:15.621Z,4.95
2023-12-24T20:53:01.361Z,4.20
2023-12-24T20:55:46.896Z,4.00
2023-12-24T20:58:32.669Z,3.88
2023-12-24T21:01:22.158Z,3.88
2023-12-24T21:04:07.643Z,5.72
2023-12-24T21:06:53.090Z,4.28
2023-12-24T21:09:44.820Z,5.20
2023-12-24T21:12:31.485Z,6.30
2023-12-24T21:15:16.904Z,6.10
2023-12-24T21:18:02.807Z,5.00
2023-12-24T21:20:49.421Z,6.78
2023-12-24T21:23:35.106Z,6.13
2023-12-24T21:26:20.903Z,5.40
2023-12-24T21:29:06.567Z,7.57
2023-12-24T21:31:51.988Z,5.47
2023-12-24T21:34:37.517Z,4.57
2023-12-24T21:37:23.723Z,4.43
2023-12-24T21:40:10.562Z,5.78
2023-12-24T21:42:55.842Z,5.90
2023-12-24T21:45:41.303Z,8.48
2023-12-24T21:48:27.336Z,4.88
2023-12-24T21:51:12.829Z,6.47
2023-12-24T21:53:58.669Z,4.93
2023-12-24T21:56:44.465Z,9.82
2023-12-24T21:59:30.369Z,6.30
2023-12-24T22:02:15.952Z,6.68
2023-12-24T22:05:01.586Z,5.53
2023-12-24T22:07:47.366Z,5.18
2023-12-24T22:10:33.009Z,6.53
2023-12-24T22:13:18.569Z,6.65
2023-12-24T22:16:04.185Z,7.55
2023-12-24T22:18:50.670Z,7.38
2023-12-24T22:21:46.354Z,7.53
2023-12-24T22:24:32.193Z,6.28
2023-12-24T22:27:17.724Z,6.80
2023-12-24T22:30:03.120Z,6.53
2023-12-24T22:32:48.568Z,6.75
2023-12-24T22:35:34.198Z,9.80
2023-12-24T22:38:19.619Z,13.80
2023-12-24T22:41:05.276Z,9.82
2023-12-24T22:43:50.932Z,9.05
2023-12-24T22:46:36.457Z,8.52
2023-12-24T22:49:22.071Z,8.20
2023-12-24T22:52:08.784Z,9.75
2023-12-24T22:54:56.227Z,7.05
2023-12-24T22:57:42.517Z,7.60
2023-12-24T23:00:28.520Z,7.00
2023-12-24T23:03:14.465Z,7.40
2023-12-24T23:06:00.348Z,6.30
2023-12-24T23:08:48.163Z,9.02
2023-12-24T23:11:33.766Z,6.93
2023-12-24T23:14:19.085Z,6.38
2023-12-24T23:17:04.928Z,9.77
2023-12-24T23:19:50.954Z,7.60
2023-12-24T23:22:36.771Z,7.10
2023-12-24T23:25:22.262Z,6.18
2023-12-24T23:28:09.606Z,6.38
2023-12-24T23:30:56.164Z,5.42
2023-12-24T23:33:41.863Z,6.55
2023-12-24T23:36:27.124Z,7.30
2023-12-24T23:39:14.440Z,7.18
2023-12-24T23:41:59.852Z,6.45
2023-12-24T23:44:45.274Z,5.63
2023-12-24T23:47:31.259Z,5.63
2023-12-24T23:50:17.367Z,6.32
2023-12-24T23:53:03.034Z,7.40
2023-12-24T23:55:48.423Z,4.10
2023-12-24T23:58:33.698Z,4.82
